Main page
METAR-TAF:

METAR-TAF

Airports :

Málaga, Spain

Málaga Airport

latitude: 36-40N, longitude: 004-29W, elevation: 16 m

Current weather observation

The report was made 13 minutes ago, at 07:00 UTC
Wind 7 kt from the West/Northwest
Temperature 10°C
Humidity 87%
Pressure 1021 hPa
Visibility 10 km or more
Broken clouds at a height of 2500 ft

METAR: LEMG 180700Z 29007KT 9999 BKN025 10/08 Q1021 NOSIG

Time: 08:13 (07:13 UTC)

Forecast

The report was made 2 hours and 13 minutes ago, at 05:00 UTC
Forecast valid from 18 at 06 UTC to 19 at 06 UTC
Wind 4 kt from the Northwest
Visibility 10 km or more
no clouds below 1500 m and no cumulonimbus
Becoming
from 18 at 09 UTC to 18 at 11 UTC
Wind 8 kt from the East
Probability 40% :
Temporary
from 18 at 06 UTC to 18 at 12 UTC
Broken clouds at a height of 1200 ft
Becoming
from 18 at 20 UTC to 18 at 22 UTC
Wind 6 kt from the Northwest

TAF: LEMG 180500Z 1806/1906 32004KT CAVOK TX17/1813Z TN09/1806Z BECMG 1809/1811 10008KT PROB40 TEMPO 1806/1812 BKN012 BECMG 1820/1822 31006KT

Weather observations and forecasts of more than 4000 airports (METAR and TAF reports).

The available stations are represented by yellow and red dots on the map.

Hover mouse over dot to see the name of the station.

Then click to see weather observations and forecasts.

To change the map : click on the green buttons with a black cross to zoom in, on the green button with a dash to zoom out, or on the green arrows for adjacent maps.


METAR-TAF: